sensor_id;sensor_type;location;lat;lon;timestamp;temperature;humidity
12849;DHT22;6493;50.928;7.172;2023-11-22T00:00:45;2.90;68.70
12849;DHT22;6493;50.928;7.172;2023-11-22T00:05:50;2.90;68.80
12849;DHT22;6493;50.928;7.172;2023-11-22T00:10:54;3.00;69.10
12849;DHT22;6493;50.928;7.172;2023-11-22T00:15:58;3.00;69.10
12849;DHT22;6493;50.928;7.172;2023-11-22T00:21:03;3.00;69.10
12849;DHT22;6493;50.928;7.172;2023-11-22T00:26:07;3.00;69.10
12849;DHT22;6493;50.928;7.172;2023-11-22T00:31:12;3.00;69.10
12849;DHT22;6493;50.928;7.172;2023-11-22T00:36:18;3.00;69.10
12849;DHT22;6493;50.928;7.172;2023-11-22T00:41:22;3.00;69.90
12849;DHT22;6493;50.928;7.172;2023-11-22T00:46:25;3.00;69.10
12849;DHT22;6493;50.928;7.172;2023-11-22T00:51:31;3.10;69.20
12849;DHT22;6493;50.928;7.172;2023-11-22T00:56:34;3.10;70.00
12849;DHT22;6493;50.928;7.172;2023-11-22T01:01:38;3.10;69.20
12849;DHT22;6493;50.928;7.172;2023-11-22T01:06:43;3.10;69.20
12849;DHT22;6493;50.928;7.172;2023-11-22T01:11:47;3.10;69.10
12849;DHT22;6493;50.928;7.172;2023-11-22T01:16:52;3.10;69.10
12849;DHT22;6493;50.928;7.172;2023-11-22T01:21:57;3.10;69.10
12849;DHT22;6493;50.928;7.172;2023-11-22T01:27:01;3.10;69.10
12849;DHT22;6493;50.928;7.172;2023-11-22T01:32:04;3.10;69.10
12849;DHT22;6493;50.928;7.172;2023-11-22T01:37:10;3.10;69.10
12849;DHT22;6493;50.928;7.172;2023-11-22T01:42:14;3.10;69.00
12849;DHT22;6493;50.928;7.172;2023-11-22T01:47:18;3.10;69.00
12849;DHT22;6493;50.928;7.172;2023-11-22T01:52:23;3.10;69.10
12849;DHT22;6493;50.928;7.172;2023-11-22T01:57:27;3.10;69.10
12849;DHT22;6493;50.928;7.172;2023-11-22T02:02:31;3.10;69.20
12849;DHT22;6493;50.928;7.172;2023-11-22T02:07:37;3.10;69.10
12849;DHT22;6493;50.928;7.172;2023-11-22T02:12:41;3.10;69.20
12849;DHT22;6493;50.928;7.172;2023-11-22T02:17:44;3.00;69.10
12849;DHT22;6493;50.928;7.172;2023-11-22T02:22:51;3.00;69.00
12849;DHT22;6493;50.928;7.172;2023-11-22T02:27:57;3.00;69.10
12849;DHT22;6493;50.928;7.172;2023-11-22T02:33:01;3.00;69.10
12849;DHT22;6493;50.928;7.172;2023-11-22T02:38:04;3.00;69.10
12849;DHT22;6493;50.928;7.172;2023-11-22T02:43:10;3.00;69.00
12849;DHT22;6493;50.928;7.172;2023-11-22T02:48:14;3.00;68.90
12849;DHT22;6493;50.928;7.172;2023-11-22T02:53:17;3.00;68.90
12849;DHT22;6493;50.928;7.172;2023-11-22T02:58:22;2.90;68.80
12849;DHT22;6493;50.928;7.172;2023-11-22T03:03:27;2.90;68.80
12849;DHT22;6493;50.928;7.172;2023-11-22T03:08:31;2.90;68.90
12849;DHT22;6493;50.928;7.172;2023-11-22T03:13:36;2.90;68.90
12849;DHT22;6493;50.928;7.172;2023-11-22T03:18:40;2.90;68.70
12849;DHT22;6493;50.928;7.172;2023-11-22T03:23:44;2.90;68.70
12849;DHT22;6493;50.928;7.172;2023-11-22T03:28:50;2.80;68.60
12849;DHT22;6493;50.928;7.172;2023-11-22T03:33:56;2.80;68.80
12849;DHT22;6493;50.928;7.172;2023-11-22T03:39:01;2.80;68.70
12849;DHT22;6493;50.928;7.172;2023-11-22T03:44:06;2.80;68.70
12849;DHT22;6493;50.928;7.172;2023-11-22T03:49:11;2.80;68.70
12849;DHT22;6493;50.928;7.172;2023-11-22T03:54:15;2.70;68.50
12849;DHT22;6493;50.928;7.172;2023-11-22T03:59:20;2.70;68.40
12849;DHT22;6493;50.928;7.172;2023-11-22T04:04:24;2.70;68.40
12849;DHT22;6493;50.928;7.172;2023-11-22T04:09:28;2.70;68.40
12849;DHT22;6493;50.928;7.172;2023-11-22T04:14:33;2.60;68.20
12849;DHT22;6493;50.928;7.172;2023-11-22T04:19:37;2.60;68.10
12849;DHT22;6493;50.928;7.172;2023-11-22T04:24:41;2.50;68.00
12849;DHT22;6493;50.928;7.172;2023-11-22T04:29:46;2.40;68.00
12849;DHT22;6493;50.928;7.172;2023-11-22T04:34:50;2.30;67.80
12849;DHT22;6493;50.928;7.172;2023-11-22T04:39:53;2.30;67.80
12849;DHT22;6493;50.928;7.172;2023-11-22T04:44:59;2.20;67.90
12849;DHT22;6493;50.928;7.172;2023-11-22T04:50:04;2.10;67.90
12849;DHT22;6493;50.928;7.172;2023-11-22T04:55:09;2.00;67.80
12849;DHT22;6493;50.928;7.172;2023-11-22T05:00:15;1.90;67.70
12849;DHT22;6493;50.928;7.172;2023-11-22T05:05:19;1.80;67.70
12849;DHT22;6493;50.928;7.172;2023-11-22T05:10:23;1.70;67.60
12849;DHT22;6493;50.928;7.172;2023-11-22T05:15:28;1.60;67.50
12849;DHT22;6493;50.928;7.172;2023-11-22T05:20:32;1.50;67.50
12849;DHT22;6493;50.928;7.172;2023-11-22T05:25:36;1.40;67.30
12849;DHT22;6493;50.928;7.172;2023-11-22T05:30:41;1.30;67.40
12849;DHT22;6493;50.928;7.172;2023-11-22T05:35:44;1.30;67.50
12849;DHT22;6493;50.928;7.172;2023-11-22T05:40:48;1.20;67.40
12849;DHT22;6493;50.928;7.172;2023-11-22T05:45:54;1.10;68.00
12849;DHT22;6493;50.928;7.172;2023-11-22T05:50:57;1.10;67.20
12849;DHT22;6493;50.928;7.172;2023-11-22T05:56:01;1.00;68.00
12849;DHT22;6493;50.928;7.172;2023-11-22T06:01:09;0.90;67.20
12849;DHT22;6493;50.928;7.172;2023-11-22T06:06:14;0.80;67.00
12849;DHT22;6493;50.928;7.172;2023-11-22T06:11:18;0.80;67.10
12849;DHT22;6493;50.928;7.172;2023-11-22T06:16:23;0.70;67.00
12849;DHT22;6493;50.928;7.172;2023-11-22T06:21:27;0.60;66.90
12849;DHT22;6493;50.928;7.172;2023-11-22T06:26:31;0.50;66.90
12849;DHT22;6493;50.928;7.172;2023-11-22T06:31:36;0.50;66.70
12849;DHT22;6493;50.928;7.172;2023-11-22T06:36:39;0.40;66.80
12849;DHT22;6493;50.928;7.172;2023-11-22T06:41:43;0.30;66.80
12849;DHT22;6493;50.928;7.172;2023-11-22T06:46:48;0.20;66.90
12849;DHT22;6493;50.928;7.172;2023-11-22T06:51:52;0.20;66.80
12849;DHT22;6493;50.928;7.172;2023-11-22T06:56:55;0.10;66.70
12849;DHT22;6493;50.928;7.172;2023-11-22T07:02:00;0.10;66.80
12849;DHT22;6493;50.928;7.172;2023-11-22T07:07:04;0.10;66.80
12849;DHT22;6493;50.928;7.172;2023-11-22T07:12:08;0.00;66.80
12849;DHT22;6493;50.928;7.172;2023-11-22T07:17:13;-0.10;66.80
12849;DHT22;6493;50.928;7.172;2023-11-22T07:22:17;0.00;67.90
12849;DHT22;6493;50.928;7.172;2023-11-22T07:27:21;0.10;68.50
12849;DHT22;6493;50.928;7.172;2023-11-22T07:32:29;0.40;68.80
12849;DHT22;6493;50.928;7.172;2023-11-22T07:37:33;0.70;69.20
12849;DHT22;6493;50.928;7.172;2023-11-22T07:42:38;1.00;69.30
12849;DHT22;6493;50.928;7.172;2023-11-22T07:47:42;1.30;69.30
12849;DHT22;6493;50.928;7.172;2023-11-22T07:52:47;1.60;69.50
12849;DHT22;6493;50.928;7.172;2023-11-22T07:57:51;1.90;69.90
12849;DHT22;6493;50.928;7.172;2023-11-22T08:02:56;2.30;69.50
12849;DHT22;6493;50.928;7.172;2023-11-22T08:08:00;2.50;67.50
12849;DHT22;6493;50.928;7.172;2023-11-22T08:13:05;2.60;67.60
12849;DHT22;6493;50.928;7.172;2023-11-22T08:18:10;2.60;66.40
12849;DHT22;6493;50.928;7.172;2023-11-22T08:23:14;2.60;66.70
12849;DHT22;6493;50.928;7.172;2023-11-22T08:28:17;2.70;67.40
12849;DHT22;6493;50.928;7.172;2023-11-22T08:33:22;3.00;68.10
12849;DHT22;6493;50.928;7.172;2023-11-22T08:38:26;3.30;66.50
12849;DHT22;6493;50.928;7.172;2023-11-22T08:43:30;3.60;68.60
12849;DHT22;6493;50.928;7.172;2023-11-22T08:48:35;4.20;69.40
12849;DHT22;6493;50.928;7.172;2023-11-22T08:53:42;4.90;70.40
12849;DHT22;6493;50.928;7.172;2023-11-22T08:58:47;5.60;70.50
12849;DHT22;6493;50.928;7.172;2023-11-22T09:03:52;6.30;70.30
12849;DHT22;6493;50.928;7.172;2023-11-22T09:08:56;6.90;69.60
12849;DHT22;6493;50.928;7.172;2023-11-22T09:14:00;7.40;69.10
12849;DHT22;6493;50.928;7.172;2023-11-22T09:19:09;7.80;69.20
12849;DHT22;6493;50.928;7.172;2023-11-22T09:24:13;8.30;67.70
12849;DHT22;6493;50.928;7.172;2023-11-22T09:29:17;8.50;66.50
12849;DHT22;6493;50.928;7.172;2023-11-22T09:34:22;8.60;62.90
12849;DHT22;6493;50.928;7.172;2023-11-22T09:39:26;8.50;63.40
12849;DHT22;6493;50.928;7.172;2023-11-22T09:44:32;8.30;63.40
12849;DHT22;6493;50.928;7.172;2023-11-22T09:49:40;8.20;62.60
12849;DHT22;6493;50.928;7.172;2023-11-22T09:54:46;7.90;60.40
12849;DHT22;6493;50.928;7.172;2023-11-22T09:59:52;7.50;60.50
12849;DHT22;6493;50.928;7.172;2023-11-22T10:04:59;7.10;59.50
12849;DHT22;6493;50.928;7.172;2023-11-22T10:10:03;6.60;59.10
12849;DHT22;6493;50.928;7.172;2023-11-22T10:15:11;6.20;57.80
12849;DHT22;6493;50.928;7.172;2023-11-22T10:20:17;5.90;59.30
12849;DHT22;6493;50.928;7.172;2023-11-22T10:25:21;5.70;60.20
12849;DHT22;6493;50.928;7.172;2023-11-22T10:30:25;5.70;60.60
12849;DHT22;6493;50.928;7.172;2023-11-22T10:35:32;5.70;60.60
12849;DHT22;6493;50.928;7.172;2023-11-22T10:40:36;5.60;59.60
12849;DHT22;6493;50.928;7.172;2023-11-22T10:45:41;5.60;60.00
12849;DHT22;6493;50.928;7.172;2023-11-22T10:50:50;5.60;59.90
12849;DHT22;6493;50.928;7.172;2023-11-22T10:56:03;5.50;59.50
12849;DHT22;6493;50.928;7.172;2023-11-22T11:01:09;5.50;59.50
12849;DHT22;6493;50.928;7.172;2023-11-22T11:06:16;5.50;59.00
12849;DHT22;6493;50.928;7.172;2023-11-22T11:11:24;5.40;59.40
12849;DHT22;6493;50.928;7.172;2023-11-22T11:16:28;5.40;59.50
12849;DHT22;6493;50.928;7.172;2023-11-22T11:21:36;5.40;58.60
12849;DHT22;6493;50.928;7.172;2023-11-22T11:26:40;5.50;59.70
12849;DHT22;6493;50.928;7.172;2023-11-22T11:31:50;5.60;60.10
12849;DHT22;6493;50.928;7.172;2023-11-22T11:36:56;5.60;59.70
12849;DHT22;6493;50.928;7.172;2023-11-22T11:42:09;5.60;59.70
12849;DHT22;6493;50.928;7.172;2023-11-22T11:47:19;5.70;59.30
12849;DHT22;6493;50.928;7.172;2023-11-22T11:52:24;5.70;60.00
12849;DHT22;6493;50.928;7.172;2023-11-22T11:57:31;5.80;59.40
12849;DHT22;6493;50.928;7.172;2023-11-22T12:02:35;5.80;59.40
12849;DHT22;6493;50.928;7.172;2023-11-22T12:07:40;5.80;59.70
12849;DHT22;6493;50.928;7.172;2023-11-22T12:12:44;5.90;59.30
12849;DHT22;6493;50.928;7.172;2023-11-22T12:17:49;5.90;58.50
12849;DHT22;6493;50.928;7.172;2023-11-22T12:22:55;5.90;58.10
12849;DHT22;6493;50.928;7.172;2023-11-22T12:27:59;5.80;56.50
12849;DHT22;6493;50.928;7.172;2023-11-22T12:33:04;5.60;57.60
12849;DHT22;6493;50.928;7.172;2023-11-22T12:38:11;5.50;56.80
12849;DHT22;6493;50.928;7.172;2023-11-22T12:43:14;5.30;56.80
12849;DHT22;6493;50.928;7.172;2023-11-22T12:48:25;5.20;55.80
12849;DHT22;6493;50.928;7.172;2023-11-22T12:53:33;5.00;55.50
12849;DHT22;6493;50.928;7.172;2023-11-22T12:58:38;5.00;56.90
12849;DHT22;6493;50.928;7.172;2023-11-22T13:03:41;4.90;54.60
12849;DHT22;6493;50.928;7.172;2023-11-22T13:08:46;4.90;55.80
12849;DHT22;6493;50.928;7.172;2023-11-22T13:13:50;4.80;56.50
12849;DHT22;6493;50.928;7.172;2023-11-22T13:18:54;4.80;55.80
12849;DHT22;6493;50.928;7.172;2023-11-22T13:23:59;4.80;55.60
12849;DHT22;6493;50.928;7.172;2023-11-22T13:29:02;4.70;54.90
12849;DHT22;6493;50.928;7.172;2023-11-22T13:34:06;4.60;55.80
12849;DHT22;6493;50.928;7.172;2023-11-22T13:39:11;4.60;56.60
12849;DHT22;6493;50.928;7.172;2023-11-22T13:44:17;4.60;56.60
12849;DHT22;6493;50.928;7.172;2023-11-22T13:49:24;4.60;56.80
12849;DHT22;6493;50.928;7.172;2023-11-22T13:54:29;4.70;56.90
12849;DHT22;6493;50.928;7.172;2023-11-22T13:59:34;4.70;56.90
12849;DHT22;6493;50.928;7.172;2023-11-22T14:04:37;4.60;56.90
12849;DHT22;6493;50.928;7.172;2023-11-22T14:09:43;4.70;57.10
12849;DHT22;6493;50.928;7.172;2023-11-22T14:14:49;4.70;56.90
12849;DHT22;6493;50.928;7.172;2023-11-22T14:19:53;4.70;57.10
12849;DHT22;6493;50.928;7.172;2023-11-22T14:24:59;4.70;56.60
12849;DHT22;6493;50.928;7.172;2023-11-22T14:30:04;4.60;57.00
12849;DHT22;6493;50.928;7.172;2023-11-22T14:35:10;4.50;57.00
12849;DHT22;6493;50.928;7.172;2023-11-22T14:40:15;4.50;57.20
12849;DHT22;6493;50.928;7.172;2023-11-22T14:45:22;4.50;57.30
12849;DHT22;6493;50.928;7.172;2023-11-22T14:50:28;4.40;57.30
12849;DHT22;6493;50.928;7.172;2023-11-22T14:55:35;4.40;57.30
12849;DHT22;6493;50.928;7.172;2023-11-22T15:00:42;4.30;57.40
12849;DHT22;6493;50.928;7.172;2023-11-22T15:05:46;4.30;57.30
12849;DHT22;6493;50.928;7.172;2023-11-22T15:10:51;4.30;57.30
12849;DHT22;6493;50.928;7.172;2023-11-22T15:15:54;4.20;57.10
12849;DHT22;6493;50.928;7.172;2023-11-22T15:20:59;4.10;57.20
12849;DHT22;6493;50.928;7.172;2023-11-22T15:26:04;4.00;57.20
12849;DHT22;6493;50.928;7.172;2023-11-22T15:31:08;4.00;57.30
12849;DHT22;6493;50.928;7.172;2023-11-22T15:36:12;3.90;57.30
12849;DHT22;6493;50.928;7.172;2023-11-22T15:41:17;3.90;57.30
12849;DHT22;6493;50.928;7.172;2023-11-22T15:46:22;3.80;57.30
12849;DHT22;6493;50.928;7.172;2023-11-22T15:51:26;3.80;57.40
12849;DHT22;6493;50.928;7.172;2023-11-22T15:56:31;3.70;58.20
12849;DHT22;6493;50.928;7.172;2023-11-22T16:01:35;3.70;58.30
12849;DHT22;6493;50.928;7.172;2023-11-22T16:06:39;3.60;58.30
12849;DHT22;6493;50.928;7.172;2023-11-22T16:11:44;3.60;58.40
12849;DHT22;6493;50.928;7.172;2023-11-22T16:16:48;3.60;58.20
12849;DHT22;6493;50.928;7.172;2023-11-22T16:21:52;3.50;58.30
12849;DHT22;6493;50.928;7.172;2023-11-22T16:26:57;3.50;58.30
12849;DHT22;6493;50.928;7.172;2023-11-22T16:32:02;3.50;58.40
12849;DHT22;6493;50.928;7.172;2023-11-22T16:37:05;3.40;58.30
12849;DHT22;6493;50.928;7.172;2023-11-22T16:42:10;3.40;58.30
12849;DHT22;6493;50.928;7.172;2023-11-22T16:47:16;3.40;58.30
12849;DHT22;6493;50.928;7.172;2023-11-22T16:52:20;3.40;58.30
12849;DHT22;6493;50.928;7.172;2023-11-22T16:57:33;3.30;58.20
12849;DHT22;6493;50.928;7.172;2023-11-22T17:02:36;3.30;58.30
12849;DHT22;6493;50.928;7.172;2023-11-22T17:07:40;3.20;58.20
12849;DHT22;6493;50.928;7.172;2023-11-22T17:12:45;3.20;58.30
12849;DHT22;6493;50.928;7.172;2023-11-22T17:17:50;3.20;58.60
12849;DHT22;6493;50.928;7.172;2023-11-22T17:22:54;3.20;58.70
12849;DHT22;6493;50.928;7.172;2023-11-22T17:27:59;3.20;58.70
12849;DHT22;6493;50.928;7.172;2023-11-22T17:33:03;3.20;58.70
12849;DHT22;6493;50.928;7.172;2023-11-22T17:38:06;3.20;58.70
12849;DHT22;6493;50.928;7.172;2023-11-22T17:43:11;3.20;58.80
12849;DHT22;6493;50.928;7.172;2023-11-22T17:48:15;3.10;58.80
12849;DHT22;6493;50.928;7.172;2023-11-22T17:53:19;3.10;58.80
12849;DHT22;6493;50.928;7.172;2023-11-22T17:58:28;3.10;58.80
12849;DHT22;6493;50.928;7.172;2023-11-22T18:03:33;3.10;58.60
12849;DHT22;6493;50.928;7.172;2023-11-22T18:08:37;3.00;58.70
12849;DHT22;6493;50.928;7.172;2023-11-22T18:13:42;3.00;58.70
12849;DHT22;6493;50.928;7.172;2023-11-22T18:18:47;3.00;58.70
12849;DHT22;6493;50.928;7.172;2023-11-22T18:23:50;2.90;58.60
12849;DHT22;6493;50.928;7.172;2023-11-22T18:28:55;2.90;58.80
12849;DHT22;6493;50.928;7.172;2023-11-22T18:33:59;2.90;58.70
12849;DHT22;6493;50.928;7.172;2023-11-22T18:39:04;2.90;58.70
12849;DHT22;6493;50.928;7.172;2023-11-22T18:44:09;2.90;58.80
12849;DHT22;6493;50.928;7.172;2023-11-22T18:49:13;2.90;58.60
12849;DHT22;6493;50.928;7.172;2023-11-22T18:54:17;2.90;58.80
12849;DHT22;6493;50.928;7.172;2023-11-22T18:59:24;2.90;58.80
12849;DHT22;6493;50.928;7.172;2023-11-22T19:04:28;2.90;58.70
12849;DHT22;6493;50.928;7.172;2023-11-22T19:09:32;2.90;58.60
12849;DHT22;6493;50.928;7.172;2023-11-22T19:14:37;2.80;58.60
12849;DHT22;6493;50.928;7.172;2023-11-22T19:19:41;2.70;58.50
12849;DHT22;6493;50.928;7.172;2023-11-22T19:24:45;2.70;58.60
12849;DHT22;6493;50.928;7.172;2023-11-22T19:29:50;2.70;58.60
12849;DHT22;6493;50.928;7.172;2023-11-22T19:34:53;2.60;58.50
12849;DHT22;6493;50.928;7.172;2023-11-22T19:39:57;2.60;58.70
12849;DHT22;6493;50.928;7.172;2023-11-22T19:45:02;2.60;58.80
12849;DHT22;6493;50.928;7.172;2023-11-22T19:50:07;2.50;58.60
12849;DHT22;6493;50.928;7.172;2023-11-22T19:55:12;2.50;58.70
12849;DHT22;6493;50.928;7.172;2023-11-22T20:00:18;2.50;58.80
12849;DHT22;6493;50.928;7.172;2023-11-22T20:05:21;2.40;58.70
12849;DHT22;6493;50.928;7.172;2023-11-22T20:10:25;2.40;58.70
12849;DHT22;6493;50.928;7.172;2023-11-22T20:15:30;2.30;58.70
12849;DHT22;6493;50.928;7.172;2023-11-22T20:20:34;2.30;58.70
12849;DHT22;6493;50.928;7.172;2023-11-22T20:25:37;2.20;58.70
12849;DHT22;6493;50.928;7.172;2023-11-22T20:30:43;2.20;58.60
12849;DHT22;6493;50.928;7.172;2023-11-22T20:35:46;2.20;58.70
12849;DHT22;6493;50.928;7.172;2023-11-22T20:40:50;2.10;58.60
12849;DHT22;6493;50.928;7.172;2023-11-22T20:45:56;2.10;58.90
12849;DHT22;6493;50.928;7.172;2023-11-22T20:51:01;2.10;58.70
12849;DHT22;6493;50.928;7.172;2023-11-22T20:56:05;2.10;58.80
12849;DHT22;6493;50.928;7.172;2023-11-22T21:01:10;2.00;58.60
12849;DHT22;6493;50.928;7.172;2023-11-22T21:06:14;2.00;58.60
12849;DHT22;6493;50.928;7.172;2023-11-22T21:11:18;2.00;58.70
12849;DHT22;6493;50.928;7.172;2023-11-22T21:16:23;2.00;58.80
12849;DHT22;6493;50.928;7.172;2023-11-22T21:21:27;2.00;58.80
12849;DHT22;6493;50.928;7.172;2023-11-22T21:26:32;2.00;58.90
12849;DHT22;6493;50.928;7.172;2023-11-22T21:31:37;2.00;58.70
12849;DHT22;6493;50.928;7.172;2023-11-22T21:36:42;2.00;58.60
12849;DHT22;6493;50.928;7.172;2023-11-22T21:41:47;2.00;59.10
12849;DHT22;6493;50.928;7.172;2023-11-22T21:46:53;2.00;58.60
12849;DHT22;6493;50.928;7.172;2023-11-22T21:51:56;1.90;58.60
12849;DHT22;6493;50.928;7.172;2023-11-22T21:57:00;1.90;58.70
12849;DHT22;6493;50.928;7.172;2023-11-22T22:02:05;1.90;58.60
12849;DHT22;6493;50.928;7.172;2023-11-22T22:07:09;1.90;58.70
12849;DHT22;6493;50.928;7.172;2023-11-22T22:12:12;1.90;58.40
12849;DHT22;6493;50.928;7.172;2023-11-22T22:17:18;1.90;58.40
12849;DHT22;6493;50.928;7.172;2023-11-22T22:22:21;1.90;58.50
12849;DHT22;6493;50.928;7.172;2023-11-22T22:27:25;1.90;58.40
12849;DHT22;6493;50.928;7.172;2023-11-22T22:32:31;1.90;58.40
12849;DHT22;6493;50.928;7.172;2023-11-22T22:37:34;1.90;58.30
12849;DHT22;6493;50.928;7.172;2023-11-22T22:42:39;1.90;58.40
12849;DHT22;6493;50.928;7.172;2023-11-22T22:47:44;1.90;58.10
12849;DHT22;6493;50.928;7.172;2023-11-22T22:52:50;1.90;58.30
12849;DHT22;6493;50.928;7.172;2023-11-22T22:57:54;1.80;58.40
12849;DHT22;6493;50.928;7.172;2023-11-22T23:02:59;1.80;58.30
12849;DHT22;6493;50.928;7.172;2023-11-22T23:08:03;1.70;58.70
12849;DHT22;6493;50.928;7.172;2023-11-22T23:13:07;1.70;58.30
12849;DHT22;6493;50.928;7.172;2023-11-22T23:18:12;1.60;58.30
12849;DHT22;6493;50.928;7.172;2023-11-22T23:23:16;1.60;58.40
12849;DHT22;6493;50.928;7.172;2023-11-22T23:28:20;1.50;58.50
12849;DHT22;6493;50.928;7.172;2023-11-22T23:33:25;1.50;58.50
12849;DHT22;6493;50.928;7.172;2023-11-22T23:38:29;1.50;58.50
12849;DHT22;6493;50.928;7.172;2023-11-22T23:43:33;1.50;58.30
12849;DHT22;6493;50.928;7.172;2023-11-22T23:48:39;1.50;58.50
12849;DHT22;6493;50.928;7.172;2023-11-22T23:53:45;1.50;58.60
12849;DHT22;6493;50.928;7.172;2023-11-22T23:58:50;1.40;58.60
